sensor_id;sensor_type;location;lat;lon;timestamp;P1;durP1;ratioP1;P2;durP2;ratioP2
60076;SDS011;45950;45.208;20.374;2023-12-20T00:00:43;65.80;;;39.53;;
60076;SDS011;45950;45.208;20.374;2023-12-20T00:03:10;65.28;;;38.78;;
60076;SDS011;45950;45.208;20.374;2023-12-20T00:05:36;51.08;;;31.92;;
60076;SDS011;45950;45.208;20.374;2023-12-20T00:08:06;57.78;;;34.42;;
60076;SDS011;45950;45.208;20.374;2023-12-20T00:10:34;56.80;;;32.90;;
60076;SDS011;45950;45.208;20.374;2023-12-20T00:13:01;58.03;;;34.45;;
60076;SDS011;45950;45.208;20.374;2023-12-20T00:15:27;53.25;;;33.92;;
60076;SDS011;45950;45.208;20.374;2023-12-20T00:17:54;53.78;;;35.20;;
60076;SDS011;45950;45.208;20.374;2023-12-20T00:23:23;59.40;;;35.60;;
60076;SDS011;45950;45.208;20.374;2023-12-20T00:25:51;59.42;;;37.00;;
60076;SDS011;45950;45.208;20.374;2023-12-20T00:28:18;60.00;;;35.08;;
60076;SDS011;45950;45.208;20.374;2023-12-20T00:30:44;67.18;;;38.58;;
60076;SDS011;45950;45.208;20.374;2023-12-20T00:33:11;117.05;;;53.90;;
60076;SDS011;45950;45.208;20.374;2023-12-20T00:35:38;118.68;;;59.83;;
60076;SDS011;45950;45.208;20.374;2023-12-20T00:38:04;86.10;;;45.65;;
60076;SDS011;45950;45.208;20.374;2023-12-20T00:40:32;76.53;;;44.20;;
60076;SDS011;45950;45.208;20.374;2023-12-20T00:43:00;87.28;;;52.03;;
60076;SDS011;45950;45.208;20.374;2023-12-20T00:45:33;102.05;;;59.22;;
60076;SDS011;45950;45.208;20.374;2023-12-20T00:48:00;73.93;;;44.08;;
60076;SDS011;45950;45.208;20.374;2023-12-20T00:50:26;80.80;;;46.95;;
60076;SDS011;45950;45.208;20.374;2023-12-20T00:53:10;73.97;;;47.15;;
60076;SDS011;45950;45.208;20.374;2023-12-20T00:55:36;68.27;;;42.50;;
60076;SDS011;45950;45.208;20.374;2023-12-20T00:58:05;57.70;;;35.80;;
60076;SDS011;45950;45.208;20.374;2023-12-20T01:00:31;58.10;;;36.25;;
60076;SDS011;45950;45.208;20.374;2023-12-20T01:02:58;62.90;;;36.83;;
60076;SDS011;45950;45.208;20.374;2023-12-20T01:05:24;57.40;;;34.22;;
60076;SDS011;45950;45.208;20.374;2023-12-20T01:07:51;63.40;;;37.83;;
60076;SDS011;45950;45.208;20.374;2023-12-20T01:10:18;63.03;;;40.33;;
60076;SDS011;45950;45.208;20.374;2023-12-20T01:12:44;61.70;;;38.08;;
60076;SDS011;45950;45.208;20.374;2023-12-20T01:15:14;54.17;;;34.67;;
60076;SDS011;45950;45.208;20.374;2023-12-20T01:17:41;50.22;;;32.60;;
60076;SDS011;45950;45.208;20.374;2023-12-20T01:20:08;55.97;;;34.35;;
60076;SDS011;45950;45.208;20.374;2023-12-20T01:22:36;57.22;;;36.90;;
60076;SDS011;45950;45.208;20.374;2023-12-20T01:25:02;64.53;;;39.40;;
60076;SDS011;45950;45.208;20.374;2023-12-20T01:27:29;52.35;;;34.30;;
60076;SDS011;45950;45.208;20.374;2023-12-20T01:29:56;49.97;;;31.40;;
60076;SDS011;45950;45.208;20.374;2023-12-20T01:32:24;54.30;;;30.52;;
60076;SDS011;45950;45.208;20.374;2023-12-20T01:34:51;52.15;;;32.65;;
60076;SDS011;45950;45.208;20.374;2023-12-20T01:37:17;49.67;;;31.60;;
60076;SDS011;45950;45.208;20.374;2023-12-20T01:39:44;72.05;;;42.35;;
60076;SDS011;45950;45.208;20.374;2023-12-20T01:42:10;52.95;;;33.75;;
60076;SDS011;45950;45.208;20.374;2023-12-20T01:44:37;58.13;;;33.45;;
60076;SDS011;45950;45.208;20.374;2023-12-20T01:47:04;54.70;;;33.22;;
60076;SDS011;45950;45.208;20.374;2023-12-20T01:49:32;51.60;;;31.45;;
60076;SDS011;45950;45.208;20.374;2023-12-20T01:51:58;54.80;;;32.80;;
60076;SDS011;45950;45.208;20.374;2023-12-20T01:54:25;54.33;;;32.92;;
60076;SDS011;45950;45.208;20.374;2023-12-20T01:56:52;48.33;;;30.65;;
60076;SDS011;45950;45.208;20.374;2023-12-20T01:59:18;52.35;;;32.83;;
60076;SDS011;45950;45.208;20.374;2023-12-20T02:01:45;57.05;;;32.88;;
60076;SDS011;45950;45.208;20.374;2023-12-20T02:04:12;56.75;;;33.35;;
60076;SDS011;45950;45.208;20.374;2023-12-20T02:06:40;60.00;;;33.72;;
60076;SDS011;45950;45.208;20.374;2023-12-20T02:09:07;55.03;;;31.10;;
60076;SDS011;45950;45.208;20.374;2023-12-20T02:11:33;54.33;;;30.98;;
60076;SDS011;45950;45.208;20.374;2023-12-20T02:14:01;54.00;;;31.23;;
60076;SDS011;45950;45.208;20.374;2023-12-20T02:16:28;54.80;;;31.75;;
60076;SDS011;45950;45.208;20.374;2023-12-20T02:18:55;50.25;;;29.30;;
60076;SDS011;45950;45.208;20.374;2023-12-20T02:21:25;56.78;;;33.13;;
60076;SDS011;45950;45.208;20.374;2023-12-20T02:23:58;56.28;;;33.25;;
60076;SDS011;45950;45.208;20.374;2023-12-20T02:26:24;54.28;;;31.88;;
60076;SDS011;45950;45.208;20.374;2023-12-20T02:28:51;55.47;;;30.23;;
60076;SDS011;45950;45.208;20.374;2023-12-20T02:31:20;56.40;;;31.55;;
60076;SDS011;45950;45.208;20.374;2023-12-20T02:33:46;53.90;;;30.90;;
60076;SDS011;45950;45.208;20.374;2023-12-20T02:36:13;49.95;;;30.13;;
60076;SDS011;45950;45.208;20.374;2023-12-20T02:38:41;51.22;;;30.77;;
60076;SDS011;45950;45.208;20.374;2023-12-20T02:41:08;53.65;;;32.08;;
60076;SDS011;45950;45.208;20.374;2023-12-20T02:43:34;53.67;;;31.08;;
60076;SDS011;45950;45.208;20.374;2023-12-20T02:46:01;52.38;;;29.27;;
60076;SDS011;45950;45.208;20.374;2023-12-20T02:48:27;50.78;;;30.52;;
60076;SDS011;45950;45.208;20.374;2023-12-20T02:50:54;53.50;;;33.58;;
60076;SDS011;45950;45.208;20.374;2023-12-20T02:53:21;50.15;;;31.33;;
60076;SDS011;45950;45.208;20.374;2023-12-20T02:55:49;48.53;;;31.42;;
60076;SDS011;45950;45.208;20.374;2023-12-20T02:58:15;49.90;;;29.17;;
60076;SDS011;45950;45.208;20.374;2023-12-20T03:00:42;47.15;;;29.80;;
60076;SDS011;45950;45.208;20.374;2023-12-20T03:03:09;51.80;;;29.15;;
60076;SDS011;45950;45.208;20.374;2023-12-20T03:08:37;40.45;;;25.83;;
60076;SDS011;45950;45.208;20.374;2023-12-20T03:11:07;48.58;;;29.40;;
60076;SDS011;45950;45.208;20.374;2023-12-20T03:13:34;46.88;;;30.73;;
60076;SDS011;45950;45.208;20.374;2023-12-20T03:16:00;46.55;;;28.85;;
60076;SDS011;45950;45.208;20.374;2023-12-20T03:18:27;50.03;;;29.30;;
60076;SDS011;45950;45.208;20.374;2023-12-20T03:23:42;51.92;;;32.38;;
60076;SDS011;45950;45.208;20.374;2023-12-20T03:26:10;53.35;;;33.92;;
60076;SDS011;45950;45.208;20.374;2023-12-20T03:28:37;56.85;;;34.22;;
60076;SDS011;45950;45.208;20.374;2023-12-20T03:31:03;64.10;;;38.08;;
60076;SDS011;45950;45.208;20.374;2023-12-20T03:33:30;50.10;;;32.55;;
60076;SDS011;45950;45.208;20.374;2023-12-20T03:35:57;57.60;;;33.13;;
60076;SDS011;45950;45.208;20.374;2023-12-20T03:38:23;55.45;;;32.33;;
60076;SDS011;45950;45.208;20.374;2023-12-20T03:43:54;54.28;;;32.42;;
60076;SDS011;45950;45.208;20.374;2023-12-20T03:46:20;56.90;;;33.50;;
60076;SDS011;45950;45.208;20.374;2023-12-20T03:48:47;53.42;;;32.60;;
60076;SDS011;45950;45.208;20.374;2023-12-20T03:51:13;53.67;;;32.13;;
60076;SDS011;45950;45.208;20.374;2023-12-20T03:53:40;50.97;;;31.48;;
60076;SDS011;45950;45.208;20.374;2023-12-20T03:56:07;52.85;;;31.80;;
60076;SDS011;45950;45.208;20.374;2023-12-20T03:58:33;54.17;;;32.83;;
60076;SDS011;45950;45.208;20.374;2023-12-20T04:01:01;54.58;;;32.75;;
60076;SDS011;45950;45.208;20.374;2023-12-20T04:03:28;52.47;;;32.03;;
60076;SDS011;45950;45.208;20.374;2023-12-20T04:05:55;53.65;;;31.58;;
60076;SDS011;45950;45.208;20.374;2023-12-20T04:08:22;54.00;;;32.85;;
60076;SDS011;45950;45.208;20.374;2023-12-20T04:10:49;55.42;;;31.65;;
60076;SDS011;45950;45.208;20.374;2023-12-20T04:16:19;47.17;;;29.08;;
60076;SDS011;45950;45.208;20.374;2023-12-20T04:18:46;49.38;;;29.70;;
60076;SDS011;45950;45.208;20.374;2023-12-20T04:21:12;48.65;;;28.48;;
60076;SDS011;45950;45.208;20.374;2023-12-20T04:23:39;46.92;;;27.70;;
60076;SDS011;45950;45.208;20.374;2023-12-20T04:26:05;43.10;;;25.45;;
60076;SDS011;45950;45.208;20.374;2023-12-20T04:28:32;45.25;;;27.08;;
60076;SDS011;45950;45.208;20.374;2023-12-20T04:30:59;46.22;;;28.55;;
60076;SDS011;45950;45.208;20.374;2023-12-20T04:33:27;46.30;;;28.25;;
60076;SDS011;45950;45.208;20.374;2023-12-20T04:35:53;52.40;;;30.63;;
60076;SDS011;45950;45.208;20.374;2023-12-20T04:38:20;50.38;;;30.33;;
60076;SDS011;45950;45.208;20.374;2023-12-20T04:40:46;46.25;;;27.95;;
60076;SDS011;45950;45.208;20.374;2023-12-20T04:43:14;48.42;;;29.25;;
60076;SDS011;45950;45.208;20.374;2023-12-20T04:45:41;44.55;;;27.70;;
60076;SDS011;45950;45.208;20.374;2023-12-20T04:48:07;54.30;;;30.52;;
60076;SDS011;45950;45.208;20.374;2023-12-20T04:56:30;64.75;;;37.13;;
60076;SDS011;45950;45.208;20.374;2023-12-20T04:58:57;60.08;;;36.08;;
60076;SDS011;45950;45.208;20.374;2023-12-20T05:01:24;66.03;;;37.78;;
60076;SDS011;45950;45.208;20.374;2023-12-20T05:03:50;62.92;;;34.47;;
60076;SDS011;45950;45.208;20.374;2023-12-20T05:06:17;61.00;;;34.67;;
60076;SDS011;45950;45.208;20.374;2023-12-20T05:08:43;52.95;;;32.25;;
60076;SDS011;45950;45.208;20.374;2023-12-20T05:11:10;61.22;;;33.10;;
60076;SDS011;45950;45.208;20.374;2023-12-20T05:13:40;67.30;;;36.20;;
60076;SDS011;45950;45.208;20.374;2023-12-20T05:16:07;67.68;;;40.03;;
60076;SDS011;45950;45.208;20.374;2023-12-20T05:18:34;103.75;;;52.60;;
60076;SDS011;45950;45.208;20.374;2023-12-20T05:21:09;108.73;;;55.07;;
60076;SDS011;45950;45.208;20.374;2023-12-20T05:23:35;94.93;;;47.92;;
60076;SDS011;45950;45.208;20.374;2023-12-20T05:26:02;97.47;;;50.30;;
60076;SDS011;45950;45.208;20.374;2023-12-20T05:31:33;122.38;;;63.28;;
60076;SDS011;45950;45.208;20.374;2023-12-20T05:33:59;140.63;;;72.13;;
60076;SDS011;45950;45.208;20.374;2023-12-20T05:36:42;150.40;;;73.93;;
60076;SDS011;45950;45.208;20.374;2023-12-20T05:39:09;148.43;;;70.35;;
60076;SDS011;45950;45.208;20.374;2023-12-20T05:41:35;138.07;;;68.00;;
60076;SDS011;45950;45.208;20.374;2023-12-20T05:44:02;121.57;;;60.47;;
60076;SDS011;45950;45.208;20.374;2023-12-20T05:46:28;97.83;;;52.50;;
60076;SDS011;45950;45.208;20.374;2023-12-20T05:48:56;81.18;;;43.95;;
60076;SDS011;45950;45.208;20.374;2023-12-20T05:51:23;70.72;;;38.88;;
60076;SDS011;45950;45.208;20.374;2023-12-20T05:53:51;60.80;;;34.05;;
60076;SDS011;45950;45.208;20.374;2023-12-20T05:56:17;57.05;;;32.83;;
60076;SDS011;45950;45.208;20.374;2023-12-20T05:58:44;60.87;;;36.03;;
60076;SDS011;45950;45.208;20.374;2023-12-20T06:01:10;55.72;;;33.35;;
60076;SDS011;45950;45.208;20.374;2023-12-20T06:03:38;59.83;;;36.60;;
60076;SDS011;45950;45.208;20.374;2023-12-20T06:06:08;59.67;;;35.72;;
60076;SDS011;45950;45.208;20.374;2023-12-20T06:11:38;52.73;;;32.23;;
60076;SDS011;45950;45.208;20.374;2023-12-20T06:14:05;61.83;;;35.10;;
60076;SDS011;45950;45.208;20.374;2023-12-20T06:16:31;65.53;;;39.08;;
60076;SDS011;45950;45.208;20.374;2023-12-20T06:18:58;79.83;;;46.50;;
60076;SDS011;45950;45.208;20.374;2023-12-20T06:21:26;74.25;;;40.50;;
60076;SDS011;45950;45.208;20.374;2023-12-20T06:23:52;79.20;;;42.95;;
60076;SDS011;45950;45.208;20.374;2023-12-20T06:26:20;82.55;;;44.35;;
60076;SDS011;45950;45.208;20.374;2023-12-20T06:28:58;79.10;;;44.38;;
60076;SDS011;45950;45.208;20.374;2023-12-20T06:31:25;107.65;;;52.25;;
60076;SDS011;45950;45.208;20.374;2023-12-20T06:33:52;91.20;;;46.25;;
60076;SDS011;45950;45.208;20.374;2023-12-20T06:36:22;84.00;;;40.72;;
60076;SDS011;45950;45.208;20.374;2023-12-20T06:38:50;73.57;;;39.35;;
60076;SDS011;45950;45.208;20.374;2023-12-20T06:41:17;101.35;;;45.70;;
60076;SDS011;45950;45.208;20.374;2023-12-20T06:43:43;87.43;;;42.50;;
60076;SDS011;45950;45.208;20.374;2023-12-20T06:46:10;71.65;;;37.15;;
60076;SDS011;45950;45.208;20.374;2023-12-20T06:48:38;69.57;;;37.60;;
60076;SDS011;45950;45.208;20.374;2023-12-20T06:51:05;60.08;;;36.20;;
60076;SDS011;45950;45.208;20.374;2023-12-20T06:53:31;64.20;;;36.80;;
60076;SDS011;45950;45.208;20.374;2023-12-20T06:55:59;61.35;;;34.05;;
60076;SDS011;45950;45.208;20.374;2023-12-20T06:58:26;58.30;;;35.20;;
60076;SDS011;45950;45.208;20.374;2023-12-20T07:00:53;55.85;;;31.77;;
60076;SDS011;45950;45.208;20.374;2023-12-20T07:03:19;52.15;;;33.35;;
60076;SDS011;45950;45.208;20.374;2023-12-20T07:05:46;48.95;;;30.95;;
60076;SDS011;45950;45.208;20.374;2023-12-20T07:11:17;46.38;;;28.25;;
60076;SDS011;45950;45.208;20.374;2023-12-20T07:13:43;53.80;;;32.33;;
60076;SDS011;45950;45.208;20.374;2023-12-20T07:16:10;52.38;;;32.53;;
60076;SDS011;45950;45.208;20.374;2023-12-20T07:18:38;57.20;;;34.70;;
60076;SDS011;45950;45.208;20.374;2023-12-20T07:21:04;97.38;;;58.60;;
60076;SDS011;45950;45.208;20.374;2023-12-20T07:23:44;90.05;;;54.70;;
60076;SDS011;45950;45.208;20.374;2023-12-20T07:26:10;71.10;;;46.88;;
60076;SDS011;45950;45.208;20.374;2023-12-20T07:28:39;56.58;;;35.90;;
60076;SDS011;45950;45.208;20.374;2023-12-20T07:31:16;49.42;;;32.08;;
60076;SDS011;45950;45.208;20.374;2023-12-20T07:33:42;75.47;;;45.08;;
60076;SDS011;45950;45.208;20.374;2023-12-20T07:36:09;82.88;;;51.47;;
60076;SDS011;45950;45.208;20.374;2023-12-20T07:38:36;85.93;;;52.70;;
60076;SDS011;45950;45.208;20.374;2023-12-20T07:41:03;65.75;;;41.33;;
60076;SDS011;45950;45.208;20.374;2023-12-20T07:43:30;73.18;;;45.33;;
60076;SDS011;45950;45.208;20.374;2023-12-20T07:46:01;63.45;;;39.63;;
60076;SDS011;45950;45.208;20.374;2023-12-20T07:48:29;72.07;;;47.10;;
60076;SDS011;45950;45.208;20.374;2023-12-20T07:50:56;76.60;;;47.50;;
60076;SDS011;45950;45.208;20.374;2023-12-20T07:53:36;67.15;;;40.22;;
60076;SDS011;45950;45.208;20.374;2023-12-20T07:56:13;64.82;;;39.35;;
60076;SDS011;45950;45.208;20.374;2023-12-20T07:58:39;52.53;;;34.00;;
60076;SDS011;45950;45.208;20.374;2023-12-20T08:01:07;62.47;;;36.03;;
60076;SDS011;45950;45.208;20.374;2023-12-20T08:03:34;64.30;;;37.97;;
60076;SDS011;45950;45.208;20.374;2023-12-20T08:06:00;62.10;;;37.35;;
60076;SDS011;45950;45.208;20.374;2023-12-20T08:08:27;69.60;;;39.78;;
60076;SDS011;45950;45.208;20.374;2023-12-20T08:10:53;82.97;;;49.47;;
60076;SDS011;45950;45.208;20.374;2023-12-20T08:13:20;90.93;;;53.97;;
60076;SDS011;45950;45.208;20.374;2023-12-20T08:15:51;82.15;;;49.28;;
60076;SDS011;45950;45.208;20.374;2023-12-20T08:18:19;68.65;;;42.13;;
60076;SDS011;45950;45.208;20.374;2023-12-20T08:20:45;65.28;;;36.97;;
60076;SDS011;45950;45.208;20.374;2023-12-20T08:23:14;88.25;;;51.45;;
60076;SDS011;45950;45.208;20.374;2023-12-20T08:25:41;118.32;;;64.13;;
60076;SDS011;45950;45.208;20.374;2023-12-20T08:28:08;83.70;;;50.22;;
60076;SDS011;45950;45.208;20.374;2023-12-20T08:30:34;74.68;;;47.47;;
60076;SDS011;45950;45.208;20.374;2023-12-20T08:33:02;70.88;;;44.05;;
60076;SDS011;45950;45.208;20.374;2023-12-20T08:35:30;64.63;;;40.05;;
60076;SDS011;45950;45.208;20.374;2023-12-20T08:37:57;68.05;;;43.30;;
60076;SDS011;45950;45.208;20.374;2023-12-20T08:40:23;132.23;;;70.28;;
60076;SDS011;45950;45.208;20.374;2023-12-20T08:42:50;189.95;;;104.82;;
60076;SDS011;45950;45.208;20.374;2023-12-20T08:45:16;127.20;;;73.78;;
60076;SDS011;45950;45.208;20.374;2023-12-20T08:47:43;75.60;;;45.40;;
60076;SDS011;45950;45.208;20.374;2023-12-20T08:50:10;66.95;;;41.75;;
60076;SDS011;45950;45.208;20.374;2023-12-20T08:52:49;64.10;;;41.80;;
60076;SDS011;45950;45.208;20.374;2023-12-20T08:55:16;63.20;;;39.75;;
60076;SDS011;45950;45.208;20.374;2023-12-20T08:57:43;66.75;;;44.38;;
60076;SDS011;45950;45.208;20.374;2023-12-20T09:00:10;60.55;;;38.35;;
60076;SDS011;45950;45.208;20.374;2023-12-20T09:02:37;58.00;;;35.60;;
60076;SDS011;45950;45.208;20.374;2023-12-20T09:05:04;67.15;;;42.38;;
60076;SDS011;45950;45.208;20.374;2023-12-20T09:07:31;69.32;;;44.55;;
60076;SDS011;45950;45.208;20.374;2023-12-20T09:09:59;72.95;;;43.95;;
60076;SDS011;45950;45.208;20.374;2023-12-20T09:12:25;62.67;;;40.50;;
60076;SDS011;45950;45.208;20.374;2023-12-20T09:14:52;65.03;;;41.65;;
60076;SDS011;45950;45.208;20.374;2023-12-20T09:17:19;77.82;;;46.45;;
60076;SDS011;45950;45.208;20.374;2023-12-20T09:19:45;72.22;;;46.72;;
60076;SDS011;45950;45.208;20.374;2023-12-20T09:22:12;70.55;;;42.67;;
60076;SDS011;45950;45.208;20.374;2023-12-20T09:24:39;84.40;;;52.22;;
60076;SDS011;45950;45.208;20.374;2023-12-20T09:27:07;94.95;;;55.53;;
60076;SDS011;45950;45.208;20.374;2023-12-20T09:29:33;96.15;;;59.50;;
60076;SDS011;45950;45.208;20.374;2023-12-20T09:32:00;82.45;;;53.38;;
60076;SDS011;45950;45.208;20.374;2023-12-20T09:34:26;74.95;;;47.80;;
60076;SDS011;45950;45.208;20.374;2023-12-20T09:36:54;76.18;;;45.28;;
60076;SDS011;45950;45.208;20.374;2023-12-20T09:39:21;79.85;;;49.95;;
60076;SDS011;45950;45.208;20.374;2023-12-20T09:41:49;90.97;;;54.65;;
60076;SDS011;45950;45.208;20.374;2023-12-20T09:44:19;84.25;;;54.53;;
60076;SDS011;45950;45.208;20.374;2023-12-20T09:46:47;80.28;;;50.05;;
60076;SDS011;45950;45.208;20.374;2023-12-20T09:49:15;81.22;;;49.90;;
60076;SDS011;45950;45.208;20.374;2023-12-20T09:51:43;74.70;;;47.63;;
60076;SDS011;45950;45.208;20.374;2023-12-20T09:54:10;75.05;;;46.63;;
60076;SDS011;45950;45.208;20.374;2023-12-20T09:56:37;104.93;;;61.47;;
60076;SDS011;45950;45.208;20.374;2023-12-20T09:59:06;152.25;;;83.32;;
60076;SDS011;45950;45.208;20.374;2023-12-20T10:01:34;222.32;;;115.47;;
60076;SDS011;45950;45.208;20.374;2023-12-20T10:04:02;162.45;;;86.53;;
60076;SDS011;45950;45.208;20.374;2023-12-20T10:06:32;188.52;;;105.25;;
60076;SDS011;45950;45.208;20.374;2023-12-20T10:08:58;101.32;;;63.53;;
60076;SDS011;45950;45.208;20.374;2023-12-20T10:11:25;97.15;;;57.03;;
60076;SDS011;45950;45.208;20.374;2023-12-20T10:13:58;95.43;;;59.75;;
60076;SDS011;45950;45.208;20.374;2023-12-20T10:16:25;96.97;;;56.55;;
60076;SDS011;45950;45.208;20.374;2023-12-20T10:18:53;98.45;;;56.25;;
60076;SDS011;45950;45.208;20.374;2023-12-20T10:21:20;94.90;;;54.78;;
60076;SDS011;45950;45.208;20.374;2023-12-20T10:23:47;102.18;;;58.55;;
60076;SDS011;45950;45.208;20.374;2023-12-20T10:26:19;106.68;;;63.65;;
60076;SDS011;45950;45.208;20.374;2023-12-20T10:28:45;94.88;;;56.80;;
60076;SDS011;45950;45.208;20.374;2023-12-20T10:31:21;97.63;;;59.00;;
60076;SDS011;45950;45.208;20.374;2023-12-20T10:33:51;99.10;;;58.25;;
60076;SDS011;45950;45.208;20.374;2023-12-20T10:36:19;96.25;;;56.33;;
60076;SDS011;45950;45.208;20.374;2023-12-20T10:38:46;101.53;;;62.45;;
60076;SDS011;45950;45.208;20.374;2023-12-20T10:41:15;111.00;;;63.33;;
60076;SDS011;45950;45.208;20.374;2023-12-20T10:43:44;116.78;;;63.38;;
60076;SDS011;45950;45.208;20.374;2023-12-20T10:46:11;105.78;;;61.17;;
60076;SDS011;45950;45.208;20.374;2023-12-20T10:48:38;109.03;;;64.10;;
60076;SDS011;45950;45.208;20.374;2023-12-20T10:51:05;98.43;;;57.97;;
60076;SDS011;45950;45.208;20.374;2023-12-20T10:53:34;98.88;;;59.33;;
60076;SDS011;45950;45.208;20.374;2023-12-20T10:56:02;108.50;;;62.78;;
60076;SDS011;45950;45.208;20.374;2023-12-20T10:58:29;99.22;;;60.10;;
60076;SDS011;45950;45.208;20.374;2023-12-20T11:00:59;99.35;;;59.47;;
60076;SDS011;45950;45.208;20.374;2023-12-20T11:03:27;90.22;;;57.15;;
60076;SDS011;45950;45.208;20.374;2023-12-20T11:06:00;92.38;;;55.10;;
60076;SDS011;45950;45.208;20.374;2023-12-20T11:08:28;93.95;;;56.00;;
60076;SDS011;45950;45.208;20.374;2023-12-20T11:11:02;103.63;;;61.45;;
60076;SDS011;45950;45.208;20.374;2023-12-20T11:13:31;114.72;;;68.00;;
60076;SDS011;45950;45.208;20.374;2023-12-20T11:15:59;111.75;;;68.65;;
60076;SDS011;45950;45.208;20.374;2023-12-20T11:18:28;123.70;;;75.60;;
60076;SDS011;45950;45.208;20.374;2023-12-20T11:20:54;136.57;;;82.65;;
60076;SDS011;45950;45.208;20.374;2023-12-20T11:23:21;113.07;;;68.00;;
60076;SDS011;45950;45.208;20.374;2023-12-20T11:25:48;97.07;;;56.97;;
60076;SDS011;45950;45.208;20.374;2023-12-20T11:28:16;98.13;;;56.50;;
60076;SDS011;45950;45.208;20.374;2023-12-20T11:30:47;96.72;;;58.17;;
60076;SDS011;45950;45.208;20.374;2023-12-20T11:33:13;94.03;;;60.15;;
60076;SDS011;45950;45.208;20.374;2023-12-20T11:35:39;87.78;;;54.00;;
60076;SDS011;45950;45.208;20.374;2023-12-20T11:38:22;83.85;;;51.15;;
60076;SDS011;45950;45.208;20.374;2023-12-20T11:40:49;84.72;;;52.50;;
60076;SDS011;45950;45.208;20.374;2023-12-20T11:43:30;80.50;;;49.22;;
60076;SDS011;45950;45.208;20.374;2023-12-20T11:46:02;77.35;;;50.17;;
60076;SDS011;45950;45.208;20.374;2023-12-20T11:48:29;81.30;;;48.35;;
60076;SDS011;45950;45.208;20.374;2023-12-20T11:50:56;72.75;;;46.70;;
60076;SDS011;45950;45.208;20.374;2023-12-20T11:53:23;75.78;;;46.97;;
60076;SDS011;45950;45.208;20.374;2023-12-20T11:55:49;78.97;;;49.00;;
60076;SDS011;45950;45.208;20.374;2023-12-20T11:58:16;80.20;;;50.15;;
60076;SDS011;45950;45.208;20.374;2023-12-20T12:00:44;71.78;;;45.28;;
60076;SDS011;45950;45.208;20.374;2023-12-20T12:03:14;79.85;;;52.65;;
60076;SDS011;45950;45.208;20.374;2023-12-20T12:05:40;77.82;;;47.80;;
60076;SDS011;45950;45.208;20.374;2023-12-20T12:08:07;72.45;;;42.42;;
60076;SDS011;45950;45.208;20.374;2023-12-20T12:10:34;64.43;;;39.83;;
60076;SDS011;45950;45.208;20.374;2023-12-20T12:13:00;65.80;;;40.38;;
60076;SDS011;45950;45.208;20.374;2023-12-20T12:15:45;61.90;;;39.13;;
60076;SDS011;45950;45.208;20.374;2023-12-20T12:18:15;62.83;;;37.58;;
60076;SDS011;45950;45.208;20.374;2023-12-20T12:20:41;58.60;;;36.05;;
60076;SDS011;45950;45.208;20.374;2023-12-20T12:23:08;58.97;;;37.63;;
60076;SDS011;45950;45.208;20.374;2023-12-20T12:25:35;56.03;;;34.53;;
60076;SDS011;45950;45.208;20.374;2023-12-20T12:28:02;54.03;;;35.17;;
60076;SDS011;45950;45.208;20.374;2023-12-20T12:30:32;57.78;;;37.45;;
60076;SDS011;45950;45.208;20.374;2023-12-20T12:33:00;56.97;;;37.63;;
60076;SDS011;45950;45.208;20.374;2023-12-20T12:35:28;58.53;;;38.55;;
60076;SDS011;45950;45.208;20.374;2023-12-20T12:37:54;65.55;;;39.28;;
60076;SDS011;45950;45.208;20.374;2023-12-20T12:40:21;64.82;;;40.30;;
60076;SDS011;45950;45.208;20.374;2023-12-20T12:42:47;65.72;;;41.42;;
60076;SDS011;45950;45.208;20.374;2023-12-20T12:45:19;60.17;;;38.33;;
60076;SDS011;45950;45.208;20.374;2023-12-20T12:47:46;78.72;;;45.83;;
60076;SDS011;45950;45.208;20.374;2023-12-20T12:50:14;64.70;;;41.92;;
60076;SDS011;45950;45.208;20.374;2023-12-20T12:55:36;56.40;;;36.00;;
60076;SDS011;45950;45.208;20.374;2023-12-20T12:58:02;54.55;;;34.63;;
60076;SDS011;45950;45.208;20.374;2023-12-20T13:00:29;50.33;;;33.75;;
60076;SDS011;45950;45.208;20.374;2023-12-20T13:02:56;43.00;;;28.92;;
60076;SDS011;45950;45.208;20.374;2023-12-20T13:05:24;38.47;;;26.33;;
60076;SDS011;45950;45.208;20.374;2023-12-20T13:07:50;41.38;;;28.52;;
60076;SDS011;45950;45.208;20.374;2023-12-20T13:10:17;44.78;;;29.50;;
60076;SDS011;45950;45.208;20.374;2023-12-20T13:12:43;49.60;;;32.67;;
60076;SDS011;45950;45.208;20.374;2023-12-20T13:15:13;48.55;;;34.15;;
60076;SDS011;45950;45.208;20.374;2023-12-20T13:17:40;52.13;;;33.92;;
60076;SDS011;45950;45.208;20.374;2023-12-20T13:20:07;54.38;;;35.75;;
60076;SDS011;45950;45.208;20.374;2023-12-20T13:25:21;63.60;;;39.60;;
60076;SDS011;45950;45.208;20.374;2023-12-20T13:27:48;55.05;;;35.75;;
60076;SDS011;45950;45.208;20.374;2023-12-20T13:30:23;64.60;;;39.63;;
60076;SDS011;45950;45.208;20.374;2023-12-20T13:32:50;66.13;;;39.22;;
60076;SDS011;45950;45.208;20.374;2023-12-20T13:35:17;67.50;;;39.97;;
60076;SDS011;45950;45.208;20.374;2023-12-20T13:37:43;64.05;;;38.88;;
60076;SDS011;45950;45.208;20.374;2023-12-20T13:40:11;64.80;;;38.08;;
60076;SDS011;45950;45.208;20.374;2023-12-20T13:42:39;67.88;;;41.85;;
60076;SDS011;45950;45.208;20.374;2023-12-20T13:45:07;75.07;;;43.05;;
60076;SDS011;45950;45.208;20.374;2023-12-20T13:47:34;81.88;;;43.97;;
60076;SDS011;45950;45.208;20.374;2023-12-20T13:50:01;73.82;;;44.35;;
60076;SDS011;45950;45.208;20.374;2023-12-20T13:52:29;77.00;;;43.80;;
60076;SDS011;45950;45.208;20.374;2023-12-20T13:54:55;76.70;;;44.20;;
60076;SDS011;45950;45.208;20.374;2023-12-20T13:57:22;78.15;;;45.83;;
60076;SDS011;45950;45.208;20.374;2023-12-20T14:02:52;77.95;;;43.35;;
60076;SDS011;45950;45.208;20.374;2023-12-20T14:05:18;82.72;;;46.70;;
60076;SDS011;45950;45.208;20.374;2023-12-20T14:07:44;77.80;;;44.58;;
60076;SDS011;45950;45.208;20.374;2023-12-20T14:10:11;77.50;;;47.05;;
60076;SDS011;45950;45.208;20.374;2023-12-20T14:12:38;73.30;;;47.00;;
60076;SDS011;45950;45.208;20.374;2023-12-20T14:15:06;93.95;;;52.15;;
60076;SDS011;45950;45.208;20.374;2023-12-20T14:17:36;111.45;;;59.83;;
60076;SDS011;45950;45.208;20.374;2023-12-20T14:20:04;79.00;;;45.60;;
60076;SDS011;45950;45.208;20.374;2023-12-20T14:22:31;79.38;;;45.72;;
60076;SDS011;45950;45.208;20.374;2023-12-20T14:24:58;78.25;;;44.13;;
60076;SDS011;45950;45.208;20.374;2023-12-20T14:27:24;65.68;;;38.55;;
60076;SDS011;45950;45.208;20.374;2023-12-20T14:29:53;73.72;;;41.63;;
60076;SDS011;45950;45.208;20.374;2023-12-20T14:32:19;75.93;;;41.15;;
60076;SDS011;45950;45.208;20.374;2023-12-20T14:34:46;70.65;;;43.85;;
60076;SDS011;45950;45.208;20.374;2023-12-20T14:37:14;72.32;;;41.65;;
60076;SDS011;45950;45.208;20.374;2023-12-20T14:39:42;67.90;;;38.35;;
60076;SDS011;45950;45.208;20.374;2023-12-20T14:42:08;67.03;;;40.95;;
60076;SDS011;45950;45.208;20.374;2023-12-20T14:44:38;68.45;;;39.63;;
60076;SDS011;45950;45.208;20.374;2023-12-20T14:47:07;70.13;;;40.50;;
60076;SDS011;45950;45.208;20.374;2023-12-20T14:49:33;76.47;;;42.05;;